sensor_id;sensor_type;location;lat;lon;timestamp;P1;durP1;ratioP1;P2;durP2;ratioP2
22193;SDS011;11262;50.308;9.270;2022-10-16T00:01:22;4.57;;;3.73;;
22193;SDS011;11262;50.308;9.270;2022-10-16T00:03:49;5.50;;;3.70;;
22193;SDS011;11262;50.308;9.270;2022-10-16T00:06:15;9.93;;;3.70;;
22193;SDS011;11262;50.308;9.270;2022-10-16T00:08:43;6.60;;;4.13;;
22193;SDS011;11262;50.308;9.270;2022-10-16T00:11:10;7.37;;;4.07;;
22193;SDS011;11262;50.308;9.270;2022-10-16T00:13:38;5.20;;;3.80;;
22193;SDS011;11262;50.308;9.270;2022-10-16T00:16:05;8.77;;;4.00;;
22193;SDS011;11262;50.308;9.270;2022-10-16T00:18:31;8.30;;;4.50;;
22193;SDS011;11262;50.308;9.270;2022-10-16T00:21:13;7.80;;;4.27;;
22193;SDS011;11262;50.308;9.270;2022-10-16T00:23:41;7.00;;;4.10;;
22193;SDS011;11262;50.308;9.270;2022-10-16T00:26:08;6.97;;;4.40;;
22193;SDS011;11262;50.308;9.270;2022-10-16T00:28:37;6.00;;;4.43;;
22193;SDS011;11262;50.308;9.270;2022-10-16T00:31:07;8.43;;;4.30;;
22193;SDS011;11262;50.308;9.270;2022-10-16T00:33:35;7.70;;;4.77;;
22193;SDS011;11262;50.308;9.270;2022-10-16T00:36:02;10.63;;;4.67;;
22193;SDS011;11262;50.308;9.270;2022-10-16T00:38:28;7.67;;;5.10;;
22193;SDS011;11262;50.308;9.270;2022-10-16T00:40:54;8.40;;;5.60;;
22193;SDS011;11262;50.308;9.270;2022-10-16T00:46:01;11.30;;;5.70;;
22193;SDS011;11262;50.308;9.270;2022-10-16T00:48:29;10.50;;;6.30;;
22193;SDS011;11262;50.308;9.270;2022-10-16T00:50:55;10.40;;;6.50;;
22193;SDS011;11262;50.308;9.270;2022-10-16T00:53:22;11.23;;;6.50;;
22193;SDS011;11262;50.308;9.270;2022-10-16T00:55:50;10.27;;;6.63;;
22193;SDS011;11262;50.308;9.270;2022-10-16T00:58:16;14.77;;;6.90;;
22193;SDS011;11262;50.308;9.270;2022-10-16T01:00:41;13.27;;;7.23;;
22193;SDS011;11262;50.308;9.270;2022-10-16T01:03:27;16.67;;;6.80;;
22193;SDS011;11262;50.308;9.270;2022-10-16T01:06:09;12.30;;;7.00;;
22193;SDS011;11262;50.308;9.270;2022-10-16T01:11:19;12.43;;;6.50;;
22193;SDS011;11262;50.308;9.270;2022-10-16T01:13:48;9.33;;;6.00;;
22193;SDS011;11262;50.308;9.270;2022-10-16T01:16:39;9.73;;;6.53;;
22193;SDS011;11262;50.308;9.270;2022-10-16T01:22:13;14.77;;;5.80;;
22193;SDS011;11262;50.308;9.270;2022-10-16T01:24:40;12.03;;;6.00;;
22193;SDS011;11262;50.308;9.270;2022-10-16T01:29:48;10.37;;;5.40;;
22193;SDS011;11262;50.308;9.270;2022-10-16T01:34:54;8.70;;;5.50;;
22193;SDS011;11262;50.308;9.270;2022-10-16T01:37:36;8.07;;;5.03;;
22193;SDS011;11262;50.308;9.270;2022-10-16T01:40:11;7.80;;;5.20;;
22193;SDS011;11262;50.308;9.270;2022-10-16T01:42:41;7.63;;;5.43;;
22193;SDS011;11262;50.308;9.270;2022-10-16T01:45:12;11.00;;;5.90;;
22193;SDS011;11262;50.308;9.270;2022-10-16T01:47:40;9.30;;;5.83;;
22193;SDS011;11262;50.308;9.270;2022-10-16T01:50:06;10.60;;;5.70;;
22193;SDS011;11262;50.308;9.270;2022-10-16T01:52:37;10.53;;;5.60;;
22193;SDS011;11262;50.308;9.270;2022-10-16T01:55:06;7.20;;;5.07;;
22193;SDS011;11262;50.308;9.270;2022-10-16T01:57:35;8.03;;;5.43;;
22193;SDS011;11262;50.308;9.270;2022-10-16T02:00:06;8.07;;;5.40;;
22193;SDS011;11262;50.308;9.270;2022-10-16T02:02:35;7.63;;;4.83;;
22193;SDS011;11262;50.308;9.270;2022-10-16T02:05:24;8.03;;;5.27;;
22193;SDS011;11262;50.308;9.270;2022-10-16T02:07:53;8.00;;;5.23;;
22193;SDS011;11262;50.308;9.270;2022-10-16T02:10:19;6.80;;;4.80;;
22193;SDS011;11262;50.308;9.270;2022-10-16T02:12:48;6.03;;;4.90;;
22193;SDS011;11262;50.308;9.270;2022-10-16T02:15:25;7.80;;;4.63;;
22193;SDS011;11262;50.308;9.270;2022-10-16T02:17:51;7.57;;;4.50;;
22193;SDS011;11262;50.308;9.270;2022-10-16T02:20:16;8.53;;;4.73;;
22193;SDS011;11262;50.308;9.270;2022-10-16T02:22:47;7.30;;;4.40;;
22193;SDS011;11262;50.308;9.270;2022-10-16T02:25:17;8.97;;;4.60;;
22193;SDS011;11262;50.308;9.270;2022-10-16T02:33:08;4.37;;;3.90;;
22193;SDS011;11262;50.308;9.270;2022-10-16T02:35:36;4.60;;;3.77;;
22193;SDS011;11262;50.308;9.270;2022-10-16T02:38:02;4.23;;;3.60;;
22193;SDS011;11262;50.308;9.270;2022-10-16T02:40:29;5.53;;;3.60;;
22193;SDS011;11262;50.308;9.270;2022-10-16T02:42:55;3.93;;;3.13;;
22193;SDS011;11262;50.308;9.270;2022-10-16T02:45:21;3.40;;;3.10;;
22193;SDS011;11262;50.308;9.270;2022-10-16T02:47:48;4.23;;;3.00;;
22193;SDS011;11262;50.308;9.270;2022-10-16T02:50:14;5.63;;;2.90;;
22193;SDS011;11262;50.308;9.270;2022-10-16T02:52:40;3.37;;;3.07;;
22193;SDS011;11262;50.308;9.270;2022-10-16T02:55:06;3.93;;;2.90;;
22193;SDS011;11262;50.308;9.270;2022-10-16T02:57:31;3.60;;;2.80;;
22193;SDS011;11262;50.308;9.270;2022-10-16T02:59:57;5.17;;;2.80;;
22193;SDS011;11262;50.308;9.270;2022-10-16T03:02:23;4.80;;;2.70;;
22193;SDS011;11262;50.308;9.270;2022-10-16T03:04:49;4.00;;;2.70;;
22193;SDS011;11262;50.308;9.270;2022-10-16T03:07:14;4.10;;;2.80;;
22193;SDS011;11262;50.308;9.270;2022-10-16T03:09:40;2.80;;;2.60;;
22193;SDS011;11262;50.308;9.270;2022-10-16T03:12:06;3.17;;;2.80;;
22193;SDS011;11262;50.308;9.270;2022-10-16T03:14:32;3.13;;;2.83;;
22193;SDS011;11262;50.308;9.270;2022-10-16T03:16:58;4.63;;;2.83;;
22193;SDS011;11262;50.308;9.270;2022-10-16T03:19:23;3.23;;;2.77;;
22193;SDS011;11262;50.308;9.270;2022-10-16T03:21:49;3.43;;;2.93;;
22193;SDS011;11262;50.308;9.270;2022-10-16T03:24:15;3.97;;;2.67;;
22193;SDS011;11262;50.308;9.270;2022-10-16T03:26:40;23.97;;;10.77;;
22193;SDS011;11262;50.308;9.270;2022-10-16T03:29:06;5.53;;;3.43;;
22193;SDS011;11262;50.308;9.270;2022-10-16T03:31:32;3.00;;;2.80;;
22193;SDS011;11262;50.308;9.270;2022-10-16T03:33:57;4.80;;;2.80;;
22193;SDS011;11262;50.308;9.270;2022-10-16T03:36:23;3.53;;;2.73;;
22193;SDS011;11262;50.308;9.270;2022-10-16T03:38:48;4.33;;;2.83;;
22193;SDS011;11262;50.308;9.270;2022-10-16T03:41:14;6.60;;;3.23;;
22193;SDS011;11262;50.308;9.270;2022-10-16T03:43:40;3.57;;;3.13;;
22193;SDS011;11262;50.308;9.270;2022-10-16T03:46:05;5.37;;;3.60;;
22193;SDS011;11262;50.308;9.270;2022-10-16T03:48:31;4.83;;;3.27;;
22193;SDS011;11262;50.308;9.270;2022-10-16T03:50:57;4.47;;;3.30;;
22193;SDS011;11262;50.308;9.270;2022-10-16T03:53:23;4.13;;;3.07;;
22193;SDS011;11262;50.308;9.270;2022-10-16T03:55:49;3.30;;;2.97;;
22193;SDS011;11262;50.308;9.270;2022-10-16T03:58:14;2.93;;;2.73;;
22193;SDS011;11262;50.308;9.270;2022-10-16T04:00:41;2.43;;;2.23;;
22193;SDS011;11262;50.308;9.270;2022-10-16T04:03:07;2.67;;;2.47;;
22193;SDS011;11262;50.308;9.270;2022-10-16T04:05:33;3.00;;;2.70;;
22193;SDS011;11262;50.308;9.270;2022-10-16T04:07:58;3.57;;;2.53;;
22193;SDS011;11262;50.308;9.270;2022-10-16T04:10:24;5.37;;;2.67;;
22193;SDS011;11262;50.308;9.270;2022-10-16T04:12:49;3.00;;;2.80;;
22193;SDS011;11262;50.308;9.270;2022-10-16T04:15:15;4.30;;;2.90;;
22193;SDS011;11262;50.308;9.270;2022-10-16T04:17:41;5.07;;;3.27;;
22193;SDS011;11262;50.308;9.270;2022-10-16T04:20:06;7.23;;;3.73;;
22193;SDS011;11262;50.308;9.270;2022-10-16T04:22:32;5.43;;;4.23;;
22193;SDS011;11262;50.308;9.270;2022-10-16T04:24:58;4.97;;;4.00;;
22193;SDS011;11262;50.308;9.270;2022-10-16T04:27:23;5.83;;;4.47;;
22193;SDS011;11262;50.308;9.270;2022-10-16T04:29:49;9.93;;;5.63;;
22193;SDS011;11262;50.308;9.270;2022-10-16T04:32:14;9.37;;;5.43;;
22193;SDS011;11262;50.308;9.270;2022-10-16T04:34:40;7.30;;;5.03;;
22193;SDS011;11262;50.308;9.270;2022-10-16T04:37:06;5.23;;;4.20;;
22193;SDS011;11262;50.308;9.270;2022-10-16T04:39:32;5.53;;;4.00;;
22193;SDS011;11262;50.308;9.270;2022-10-16T04:41:57;6.20;;;4.37;;
22193;SDS011;11262;50.308;9.270;2022-10-16T04:44:23;6.33;;;4.13;;
22193;SDS011;11262;50.308;9.270;2022-10-16T04:46:50;6.80;;;4.23;;
22193;SDS011;11262;50.308;9.270;2022-10-16T04:49:15;5.97;;;4.10;;
22193;SDS011;11262;50.308;9.270;2022-10-16T04:51:41;8.03;;;4.33;;
22193;SDS011;11262;50.308;9.270;2022-10-16T04:54:07;8.07;;;4.80;;
22193;SDS011;11262;50.308;9.270;2022-10-16T04:56:34;8.37;;;4.87;;
22193;SDS011;11262;50.308;9.270;2022-10-16T04:59:05;8.63;;;4.70;;
22193;SDS011;11262;50.308;9.270;2022-10-16T05:01:31;9.23;;;4.93;;
22193;SDS011;11262;50.308;9.270;2022-10-16T05:03:56;7.03;;;4.37;;
22193;SDS011;11262;50.308;9.270;2022-10-16T05:06:22;10.00;;;5.33;;
22193;SDS011;11262;50.308;9.270;2022-10-16T05:08:47;8.53;;;5.07;;
22193;SDS011;11262;50.308;9.270;2022-10-16T05:11:13;11.13;;;6.43;;
22193;SDS011;11262;50.308;9.270;2022-10-16T05:13:38;12.60;;;6.67;;
22193;SDS011;11262;50.308;9.270;2022-10-16T05:16:04;14.33;;;7.13;;
22193;SDS011;11262;50.308;9.270;2022-10-16T05:18:30;11.53;;;6.80;;
22193;SDS011;11262;50.308;9.270;2022-10-16T05:20:55;16.50;;;7.30;;
22193;SDS011;11262;50.308;9.270;2022-10-16T05:23:21;15.37;;;6.60;;
22193;SDS011;11262;50.308;9.270;2022-10-16T05:25:56;10.77;;;5.97;;
22193;SDS011;11262;50.308;9.270;2022-10-16T05:28:23;10.70;;;6.17;;
22193;SDS011;11262;50.308;9.270;2022-10-16T05:30:50;14.30;;;6.90;;
22193;SDS011;11262;50.308;9.270;2022-10-16T05:33:16;11.80;;;6.53;;
22193;SDS011;11262;50.308;9.270;2022-10-16T05:35:42;11.60;;;6.47;;
22193;SDS011;11262;50.308;9.270;2022-10-16T05:38:08;12.43;;;6.23;;
22193;SDS011;11262;50.308;9.270;2022-10-16T05:40:34;12.80;;;6.07;;
22193;SDS011;11262;50.308;9.270;2022-10-16T05:43:00;9.93;;;5.80;;
22193;SDS011;11262;50.308;9.270;2022-10-16T05:45:25;7.97;;;5.17;;
22193;SDS011;11262;50.308;9.270;2022-10-16T05:47:51;11.00;;;5.47;;
22193;SDS011;11262;50.308;9.270;2022-10-16T05:50:17;9.07;;;5.10;;
22193;SDS011;11262;50.308;9.270;2022-10-16T05:52:42;10.63;;;5.50;;
22193;SDS011;11262;50.308;9.270;2022-10-16T05:55:08;7.80;;;4.73;;
22193;SDS011;11262;50.308;9.270;2022-10-16T05:57:33;8.43;;;4.40;;
22193;SDS011;11262;50.308;9.270;2022-10-16T05:59:59;9.13;;;4.87;;
22193;SDS011;11262;50.308;9.270;2022-10-16T06:02:25;20.67;;;10.63;;
22193;SDS011;11262;50.308;9.270;2022-10-16T06:04:53;29.07;;;15.07;;
22193;SDS011;11262;50.308;9.270;2022-10-16T06:07:19;13.07;;;6.13;;
22193;SDS011;11262;50.308;9.270;2022-10-16T06:09:47;9.70;;;4.70;;
22193;SDS011;11262;50.308;9.270;2022-10-16T06:12:14;6.80;;;4.10;;
22193;SDS011;11262;50.308;9.270;2022-10-16T06:14:40;7.90;;;4.50;;
22193;SDS011;11262;50.308;9.270;2022-10-16T06:17:06;7.03;;;4.37;;
22193;SDS011;11262;50.308;9.270;2022-10-16T06:19:31;8.50;;;5.43;;
22193;SDS011;11262;50.308;9.270;2022-10-16T06:21:57;9.83;;;4.80;;
22193;SDS011;11262;50.308;9.270;2022-10-16T06:24:23;9.13;;;4.90;;
22193;SDS011;11262;50.308;9.270;2022-10-16T06:26:49;9.57;;;5.17;;
22193;SDS011;11262;50.308;9.270;2022-10-16T06:29:15;10.73;;;5.77;;
22193;SDS011;11262;50.308;9.270;2022-10-16T06:31:40;13.67;;;5.60;;
22193;SDS011;11262;50.308;9.270;2022-10-16T06:34:08;11.27;;;5.97;;
22193;SDS011;11262;50.308;9.270;2022-10-16T06:36:35;13.70;;;7.23;;
22193;SDS011;11262;50.308;9.270;2022-10-16T06:39:01;15.90;;;7.07;;
22193;SDS011;11262;50.308;9.270;2022-10-16T06:41:27;16.77;;;7.73;;
22193;SDS011;11262;50.308;9.270;2022-10-16T06:43:53;18.70;;;8.73;;
22193;SDS011;11262;50.308;9.270;2022-10-16T06:46:20;17.03;;;7.90;;
22193;SDS011;11262;50.308;9.270;2022-10-16T06:48:47;20.57;;;8.80;;
22193;SDS011;11262;50.308;9.270;2022-10-16T06:51:13;15.53;;;7.87;;
22193;SDS011;11262;50.308;9.270;2022-10-16T06:53:41;17.67;;;7.93;;
22193;SDS011;11262;50.308;9.270;2022-10-16T06:56:14;15.23;;;7.83;;
22193;SDS011;11262;50.308;9.270;2022-10-16T06:58:42;22.03;;;8.77;;
22193;SDS011;11262;50.308;9.270;2022-10-16T07:01:09;14.90;;;6.70;;
22193;SDS011;11262;50.308;9.270;2022-10-16T07:03:39;12.27;;;6.37;;
22193;SDS011;11262;50.308;9.270;2022-10-16T07:06:06;14.20;;;7.00;;
22193;SDS011;11262;50.308;9.270;2022-10-16T07:08:33;14.03;;;7.33;;
22193;SDS011;11262;50.308;9.270;2022-10-16T07:11:00;12.63;;;7.10;;
22193;SDS011;11262;50.308;9.270;2022-10-16T07:13:28;13.07;;;6.40;;
22193;SDS011;11262;50.308;9.270;2022-10-16T07:15:53;9.77;;;5.30;;
22193;SDS011;11262;50.308;9.270;2022-10-16T07:18:19;9.97;;;5.90;;
22193;SDS011;11262;50.308;9.270;2022-10-16T07:20:45;10.60;;;5.97;;
22193;SDS011;11262;50.308;9.270;2022-10-16T07:23:11;9.03;;;5.43;;
22193;SDS011;11262;50.308;9.270;2022-10-16T07:25:36;10.90;;;5.40;;
22193;SDS011;11262;50.308;9.270;2022-10-16T07:28:02;6.73;;;4.97;;
22193;SDS011;11262;50.308;9.270;2022-10-16T07:30:27;10.33;;;4.80;;
22193;SDS011;11262;50.308;9.270;2022-10-16T07:32:53;8.77;;;4.50;;
22193;SDS011;11262;50.308;9.270;2022-10-16T07:35:18;7.20;;;4.43;;
22193;SDS011;11262;50.308;9.270;2022-10-16T07:37:45;24.23;;;6.63;;
22193;SDS011;11262;50.308;9.270;2022-10-16T07:40:11;183.33;;;11.23;;
22193;SDS011;11262;50.308;9.270;2022-10-16T07:42:37;567.03;;;20.87;;
22193;SDS011;11262;50.308;9.270;2022-10-16T07:45:02;392.67;;;15.57;;
22193;SDS011;11262;50.308;9.270;2022-10-16T07:47:28;97.43;;;7.83;;
22193;SDS011;11262;50.308;9.270;2022-10-16T07:49:54;161.27;;;10.10;;
22193;SDS011;11262;50.308;9.270;2022-10-16T07:52:19;24.20;;;7.10;;
22193;SDS011;11262;50.308;9.270;2022-10-16T07:54:45;16.20;;;7.53;;
22193;SDS011;11262;50.308;9.270;2022-10-16T07:57:10;10.43;;;5.63;;
22193;SDS011;11262;50.308;9.270;2022-10-16T07:59:36;12.50;;;5.50;;
22193;SDS011;11262;50.308;9.270;2022-10-16T08:02:02;8.20;;;5.37;;
22193;SDS011;11262;50.308;9.270;2022-10-16T08:04:28;11.23;;;5.73;;
22193;SDS011;11262;50.308;9.270;2022-10-16T08:06:53;8.60;;;5.37;;
22193;SDS011;11262;50.308;9.270;2022-10-16T08:09:19;11.90;;;5.60;;
22193;SDS011;11262;50.308;9.270;2022-10-16T08:11:44;15.10;;;5.87;;
22193;SDS011;11262;50.308;9.270;2022-10-16T08:14:10;9.27;;;4.90;;
22193;SDS011;11262;50.308;9.270;2022-10-16T08:16:36;11.00;;;4.50;;
22193;SDS011;11262;50.308;9.270;2022-10-16T08:19:01;6.83;;;3.90;;
22193;SDS011;11262;50.308;9.270;2022-10-16T08:21:27;6.23;;;4.33;;
22193;SDS011;11262;50.308;9.270;2022-10-16T08:23:53;8.47;;;4.30;;
22193;SDS011;11262;50.308;9.270;2022-10-16T08:26:20;15.07;;;4.77;;
22193;SDS011;11262;50.308;9.270;2022-10-16T08:28:45;5.87;;;3.90;;
22193;SDS011;11262;50.308;9.270;2022-10-16T08:31:14;11.17;;;6.70;;
22193;SDS011;11262;50.308;9.270;2022-10-16T08:33:41;8.70;;;5.10;;
22193;SDS011;11262;50.308;9.270;2022-10-16T08:36:09;13.60;;;7.17;;
22193;SDS011;11262;50.308;9.270;2022-10-16T08:38:36;17.63;;;7.10;;
22193;SDS011;11262;50.308;9.270;2022-10-16T08:41:20;9.63;;;6.40;;
22193;SDS011;11262;50.308;9.270;2022-10-16T08:46:40;8.10;;;5.17;;
22193;SDS011;11262;50.308;9.270;2022-10-16T08:49:09;13.97;;;7.87;;
22193;SDS011;11262;50.308;9.270;2022-10-16T08:51:38;13.47;;;7.27;;
22193;SDS011;11262;50.308;9.270;2022-10-16T08:54:05;13.30;;;6.37;;
22193;SDS011;11262;50.308;9.270;2022-10-16T08:56:37;20.30;;;8.07;;
22193;SDS011;11262;50.308;9.270;2022-10-16T08:59:03;12.53;;;7.93;;
22193;SDS011;11262;50.308;9.270;2022-10-16T09:01:38;10.13;;;4.90;;
22193;SDS011;11262;50.308;9.270;2022-10-16T09:25:30;13.23;;;7.17;;
22193;SDS011;11262;50.308;9.270;2022-10-16T09:27:57;19.97;;;9.20;;
22193;SDS011;11262;50.308;9.270;2022-10-16T09:30:23;14.33;;;7.37;;
22193;SDS011;11262;50.308;9.270;2022-10-16T09:32:53;15.23;;;7.47;;
22193;SDS011;11262;50.308;9.270;2022-10-16T09:35:22;14.50;;;7.80;;
22193;SDS011;11262;50.308;9.270;2022-10-16T09:38:07;17.53;;;8.70;;
22193;SDS011;11262;50.308;9.270;2022-10-16T09:40:37;11.63;;;7.10;;
22193;SDS011;11262;50.308;9.270;2022-10-16T09:45:52;16.83;;;8.70;;
22193;SDS011;11262;50.308;9.270;2022-10-16T09:48:20;18.67;;;9.90;;
22193;SDS011;11262;50.308;9.270;2022-10-16T09:50:55;12.67;;;7.67;;
22193;SDS011;11262;50.308;9.270;2022-10-16T09:53:26;13.37;;;8.83;;
22193;SDS011;11262;50.308;9.270;2022-10-16T09:56:03;6.10;;;4.70;;
22193;SDS011;11262;50.308;9.270;2022-10-16T09:58:31;10.20;;;6.67;;
22193;SDS011;11262;50.308;9.270;2022-10-16T10:00:58;7.73;;;5.57;;
22193;SDS011;11262;50.308;9.270;2022-10-16T10:06:06;8.60;;;5.53;;
22193;SDS011;11262;50.308;9.270;2022-10-16T10:08:56;7.13;;;4.57;;
22193;SDS011;11262;50.308;9.270;2022-10-16T10:16:52;7.47;;;5.33;;
22193;SDS011;11262;50.308;9.270;2022-10-16T10:22:39;13.17;;;8.20;;
22193;SDS011;11262;50.308;9.270;2022-10-16T10:35:47;19.10;;;10.37;;
22193;SDS011;11262;50.308;9.270;2022-10-16T10:38:20;18.80;;;9.40;;
22193;SDS011;11262;50.308;9.270;2022-10-16T10:46:02;12.03;;;6.80;;
22193;SDS011;11262;50.308;9.270;2022-10-16T10:51:06;28.17;;;11.97;;
22193;SDS011;11262;50.308;9.270;2022-10-16T10:53:41;15.00;;;8.30;;
22193;SDS011;11262;50.308;9.270;2022-10-16T11:02:01;18.57;;;11.23;;
22193;SDS011;11262;50.308;9.270;2022-10-16T11:07:31;17.90;;;9.80;;
22193;SDS011;11262;50.308;9.270;2022-10-16T11:10:12;17.33;;;9.00;;
22193;SDS011;11262;50.308;9.270;2022-10-16T11:12:42;28.23;;;15.77;;
22193;SDS011;11262;50.308;9.270;2022-10-16T11:17:48;15.77;;;9.70;;
22193;SDS011;11262;50.308;9.270;2022-10-16T11:20:32;20.30;;;11.40;;
22193;SDS011;11262;50.308;9.270;2022-10-16T11:25:41;12.13;;;7.33;;
22193;SDS011;11262;50.308;9.270;2022-10-16T11:28:12;10.47;;;6.87;;
22193;SDS011;11262;50.308;9.270;2022-10-16T11:30:59;9.10;;;6.67;;
22193;SDS011;11262;50.308;9.270;2022-10-16T11:36:14;12.57;;;7.03;;
22193;SDS011;11262;50.308;9.270;2022-10-16T11:46:48;10.70;;;6.73;;
22193;SDS011;11262;50.308;9.270;2022-10-16T11:49:24;6.47;;;4.80;;
22193;SDS011;11262;50.308;9.270;2022-10-16T11:52:00;7.57;;;5.40;;
22193;SDS011;11262;50.308;9.270;2022-10-16T11:54:45;7.50;;;5.37;;
22193;SDS011;11262;50.308;9.270;2022-10-16T11:57:18;7.80;;;5.23;;
22193;SDS011;11262;50.308;9.270;2022-10-16T11:59:59;7.57;;;4.80;;
22193;SDS011;11262;50.308;9.270;2022-10-16T12:05:14;20.83;;;12.30;;
22193;SDS011;11262;50.308;9.270;2022-10-16T12:08:02;10.60;;;6.60;;
22193;SDS011;11262;50.308;9.270;2022-10-16T12:10:41;18.13;;;10.10;;
22193;SDS011;11262;50.308;9.270;2022-10-16T12:13:33;6.87;;;4.70;;
22193;SDS011;11262;50.308;9.270;2022-10-16T12:16:19;9.53;;;4.50;;
22193;SDS011;11262;50.308;9.270;2022-10-16T12:18:46;13.13;;;8.23;;
22193;SDS011;11262;50.308;9.270;2022-10-16T12:21:13;8.23;;;4.87;;
22193;SDS011;11262;50.308;9.270;2022-10-16T12:23:50;6.20;;;4.77;;
22193;SDS011;11262;50.308;9.270;2022-10-16T12:26:36;9.20;;;4.40;;
22193;SDS011;11262;50.308;9.270;2022-10-16T12:29:14;6.97;;;4.50;;
22193;SDS011;11262;50.308;9.270;2022-10-16T12:32:03;6.63;;;4.53;;
22193;SDS011;11262;50.308;9.270;2022-10-16T12:34:41;8.37;;;4.60;;
22193;SDS011;11262;50.308;9.270;2022-10-16T12:37:09;10.70;;;5.27;;
22193;SDS011;11262;50.308;9.270;2022-10-16T12:39:35;12.40;;;6.17;;
22193;SDS011;11262;50.308;9.270;2022-10-16T12:42:03;11.17;;;6.60;;
22193;SDS011;11262;50.308;9.270;2022-10-16T12:44:34;21.10;;;10.87;;
22193;SDS011;11262;50.308;9.270;2022-10-16T12:47:00;20.27;;;9.90;;
22193;SDS011;11262;50.308;9.270;2022-10-16T12:49:31;14.80;;;8.23;;
22193;SDS011;11262;50.308;9.270;2022-10-16T12:52:01;11.70;;;6.00;;
22193;SDS011;11262;50.308;9.270;2022-10-16T12:54:34;16.47;;;9.53;;
22193;SDS011;11262;50.308;9.270;2022-10-16T12:57:26;28.77;;;17.00;;
22193;SDS011;11262;50.308;9.270;2022-10-16T13:00:24;13.00;;;4.37;;
22193;SDS011;11262;50.308;9.270;2022-10-16T13:11:20;8.93;;;5.10;;
22193;SDS011;11262;50.308;9.270;2022-10-16T13:19:08;18.17;;;9.30;;
22193;SDS011;11262;50.308;9.270;2022-10-16T13:29:32;4.33;;;3.40;;
22193;SDS011;11262;50.308;9.270;2022-10-16T13:31:59;6.60;;;3.30;;
22193;SDS011;11262;50.308;9.270;2022-10-16T13:34:26;7.07;;;3.83;;
22193;SDS011;11262;50.308;9.270;2022-10-16T13:36:53;3.73;;;3.27;;
22193;SDS011;11262;50.308;9.270;2022-10-16T13:42:03;7.00;;;4.17;;
22193;SDS011;11262;50.308;9.270;2022-10-16T13:44:33;6.07;;;3.53;;
22193;SDS011;11262;50.308;9.270;2022-10-16T13:47:04;6.57;;;3.80;;
22193;SDS011;11262;50.308;9.270;2022-10-16T13:49:29;7.47;;;3.60;;
22193;SDS011;11262;50.308;9.270;2022-10-16T13:51:55;8.73;;;3.97;;
22193;SDS011;11262;50.308;9.270;2022-10-16T13:54:22;5.33;;;3.67;;
22193;SDS011;11262;50.308;9.270;2022-10-16T13:56:49;6.57;;;4.07;;
22193;SDS011;11262;50.308;9.270;2022-10-16T13:59:25;5.73;;;4.10;;
22193;SDS011;11262;50.308;9.270;2022-10-16T14:02:05;4.37;;;3.27;;
22193;SDS011;11262;50.308;9.270;2022-10-16T14:04:44;6.50;;;3.40;;
22193;SDS011;11262;50.308;9.270;2022-10-16T14:07:13;5.03;;;3.50;;
22193;SDS011;11262;50.308;9.270;2022-10-16T14:09:47;7.57;;;4.03;;
22193;SDS011;11262;50.308;9.270;2022-10-16T14:12:14;9.97;;;4.00;;
22193;SDS011;11262;50.308;9.270;2022-10-16T14:14:41;6.93;;;3.93;;
22193;SDS011;11262;50.308;9.270;2022-10-16T14:17:20;9.40;;;3.90;;
22193;SDS011;11262;50.308;9.270;2022-10-16T14:19:50;7.27;;;4.30;;
22193;SDS011;11262;50.308;9.270;2022-10-16T14:22:26;7.33;;;4.00;;
22193;SDS011;11262;50.308;9.270;2022-10-16T14:24:54;9.60;;;4.40;;
22193;SDS011;11262;50.308;9.270;2022-10-16T14:27:23;7.30;;;3.60;;
22193;SDS011;11262;50.308;9.270;2022-10-16T14:32:42;6.10;;;3.90;;
22193;SDS011;11262;50.308;9.270;2022-10-16T14:35:30;7.33;;;4.00;;
22193;SDS011;11262;50.308;9.270;2022-10-16T14:37:57;9.07;;;4.10;;
22193;SDS011;11262;50.308;9.270;2022-10-16T14:40:26;9.43;;;3.87;;
22193;SDS011;11262;50.308;9.270;2022-10-16T14:42:53;5.77;;;4.43;;
22193;SDS011;11262;50.308;9.270;2022-10-16T14:45:21;9.50;;;4.93;;
22193;SDS011;11262;50.308;9.270;2022-10-16T14:47:50;7.20;;;4.57;;
22193;SDS011;11262;50.308;9.270;2022-10-16T14:50:20;7.27;;;4.10;;
22193;SDS011;11262;50.308;9.270;2022-10-16T14:52:46;5.93;;;4.37;;
22193;SDS011;11262;50.308;9.270;2022-10-16T14:55:12;11.00;;;4.27;;
22193;SDS011;11262;50.308;9.270;2022-10-16T14:57:38;5.17;;;4.00;;
22193;SDS011;11262;50.308;9.270;2022-10-16T15:00:15;12.27;;;6.03;;
22193;SDS011;11262;50.308;9.270;2022-10-16T15:02:46;9.13;;;4.37;;
22193;SDS011;11262;50.308;9.270;2022-10-16T15:05:15;6.30;;;4.30;;
22193;SDS011;11262;50.308;9.270;2022-10-16T15:07:43;9.23;;;4.33;;
22193;SDS011;11262;50.308;9.270;2022-10-16T15:10:10;4.63;;;3.70;;
22193;SDS011;11262;50.308;9.270;2022-10-16T15:12:36;8.97;;;3.90;;
22193;SDS011;11262;50.308;9.270;2022-10-16T15:15:05;8.40;;;3.80;;
22193;SDS011;11262;50.308;9.270;2022-10-16T15:17:59;8.73;;;3.57;;
22193;SDS011;11262;50.308;9.270;2022-10-16T15:20:30;9.47;;;3.40;;
22193;SDS011;11262;50.308;9.270;2022-10-16T15:22:59;4.60;;;3.20;;
22193;SDS011;11262;50.308;9.270;2022-10-16T15:28:23;5.93;;;3.20;;
22193;SDS011;11262;50.308;9.270;2022-10-16T15:30:51;8.53;;;3.20;;
22193;SDS011;11262;50.308;9.270;2022-10-16T15:33:19;5.50;;;3.50;;
22193;SDS011;11262;50.308;9.270;2022-10-16T15:35:46;8.20;;;3.83;;
22193;SDS011;11262;50.308;9.270;2022-10-16T15:38:13;4.67;;;3.27;;
22193;SDS011;11262;50.308;9.270;2022-10-16T15:40:39;5.43;;;2.87;;
22193;SDS011;11262;50.308;9.270;2022-10-16T15:43:05;6.97;;;3.23;;
22193;SDS011;11262;50.308;9.270;2022-10-16T15:45:31;5.50;;;3.20;;
22193;SDS011;11262;50.308;9.270;2022-10-16T15:47:56;7.37;;;3.30;;
22193;SDS011;11262;50.308;9.270;2022-10-16T15:50:22;11.87;;;3.60;;
22193;SDS011;11262;50.308;9.270;2022-10-16T15:52:48;7.80;;;3.60;;
22193;SDS011;11262;50.308;9.270;2022-10-16T15:55:15;5.77;;;3.60;;
22193;SDS011;11262;50.308;9.270;2022-10-16T15:57:42;4.10;;;3.37;;
22193;SDS011;11262;50.308;9.270;2022-10-16T16:00:12;4.47;;;3.53;;
22193;SDS011;11262;50.308;9.270;2022-10-16T16:02:40;6.17;;;3.93;;
22193;SDS011;11262;50.308;9.270;2022-10-16T16:05:06;9.67;;;3.70;;
22193;SDS011;11262;50.308;9.270;2022-10-16T16:07:33;10.90;;;3.60;;
22193;SDS011;11262;50.308;9.270;2022-10-16T16:09:59;13.83;;;4.17;;
22193;SDS011;11262;50.308;9.270;2022-10-16T16:12:25;8.83;;;3.90;;
22193;SDS011;11262;50.308;9.270;2022-10-16T16:14:51;9.27;;;3.70;;
22193;SDS011;11262;50.308;9.270;2022-10-16T16:17:17;8.63;;;4.00;;
22193;SDS011;11262;50.308;9.270;2022-10-16T16:19:43;8.43;;;4.00;;
22193;SDS011;11262;50.308;9.270;2022-10-16T16:22:08;9.03;;;3.93;;
22193;SDS011;11262;50.308;9.270;2022-10-16T16:24:34;7.13;;;4.03;;
22193;SDS011;11262;50.308;9.270;2022-10-16T16:26:59;6.80;;;4.07;;
22193;SDS011;11262;50.308;9.270;2022-10-16T16:29:25;5.60;;;4.03;;
22193;SDS011;11262;50.308;9.270;2022-10-16T16:31:50;8.50;;;4.20;;
22193;SDS011;11262;50.308;9.270;2022-10-16T16:34:22;5.80;;;4.00;;
22193;SDS011;11262;50.308;9.270;2022-10-16T16:36:51;8.97;;;4.50;;
22193;SDS011;11262;50.308;9.270;2022-10-16T16:39:17;7.77;;;4.23;;
22193;SDS011;11262;50.308;9.270;2022-10-16T16:41:43;6.83;;;4.27;;
22193;SDS011;11262;50.308;9.270;2022-10-16T16:44:10;17.40;;;6.40;;
22193;SDS011;11262;50.308;9.270;2022-10-16T16:46:36;18.97;;;7.77;;
22193;SDS011;11262;50.308;9.270;2022-10-16T16:49:04;18.40;;;6.63;;
22193;SDS011;11262;50.308;9.270;2022-10-16T16:51:31;18.07;;;8.17;;
22193;SDS011;11262;50.308;9.270;2022-10-16T16:53:57;17.30;;;7.37;;
22193;SDS011;11262;50.308;9.270;2022-10-16T16:56:23;16.83;;;8.30;;
22193;SDS011;11262;50.308;9.270;2022-10-16T16:58:50;15.83;;;7.30;;
22193;SDS011;11262;50.308;9.270;2022-10-16T17:01:17;14.87;;;6.67;;
22193;SDS011;11262;50.308;9.270;2022-10-16T17:03:43;15.97;;;7.67;;